This is the latest recevied weather packets stored in our database for station/object KC5L-7. If no packets are shown the sender has not sent any weather packets the latest 10 day(s).
| Time | Temp. | Humidity | Pressure | Rain* | Wind** | Luminosity | Snow |
|---|---|---|---|---|---|---|---|
| 1777863080 | 21.11° C | 45% | 1015.3 hPa | 0 mm | - | - | - |
| 1777861880 | 21.67° C | 43% | 1015.2 hPa | 0 mm | - | - | - |
| 1777861280 | 21.67° C | 42% | 1015.1 hPa | 0 mm | - | - | - |
| 1777860680 | 21.67° C | 41% | 1015.1 hPa | 0 mm | - | - | - |
| 1777860080 | 22.22° C | 39% | 1014.9 hPa | 0 mm | - | - | - |
| 1777859480 | 22.78° C | 37% | 1014.8 hPa | 0 mm | - | - | - |
| 1777858280 | 23.33° C | 33% | 1014.4 hPa | 0 mm | - | - | - |
| 1777857680 | 23.89° C | 33% | 1014.3 hPa | 0 mm | - | - | - |
| 1777857080 | 23.89° C | 31% | 1014.3 hPa | 0 mm | - | - | - |
| 1777856481 | 23.89° C | 31% | 1014.3 hPa | 0 mm | - | - | - |
| 1777855280 | 24.44° C | 30% | 1014.3 hPa | 0 mm | - | - | - |
| 1777854680 | 24.44° C | 30% | 1014.3 hPa | 0 mm | - | - | - |
| 1777854080 | 24.44° C | 30% | 1014.3 hPa | 0 mm | - | - | - |
| 1777853479 | 25° C | 29% | 1014.3 hPa | 0 mm | - | - | - |
| 1777852880 | 25° C | 28% | 1014.4 hPa | 0 mm | - | - | - |
| 1777852280 | 25° C | 28% | 1014.5 hPa | 0 mm | - | - | - |
| 1777851680 | 25° C | 28% | 1014.6 hPa | 0 mm | - | - | - |
| 1777851081 | 25.56° C | 28% | 1014.8 hPa | 0 mm | - | - | - |
| 1777850480 | 25° C | 28% | 1014.9 hPa | 0 mm | - | - | - |
| 1777849882 | 25.56° C | 27% | 1014.8 hPa | 0 mm | - | - | - |
| 1777849282 | 25.56° C | 26% | 1014.9 hPa | 0 mm | - | - | - |
| 1777848082 | 25.56° C | 25% | 1014.9 hPa | 0 mm | - | - | - |
| 1777847482 | 25.56° C | 25% | 1014.9 hPa | 0 mm | - | - | - |
| 1777846883 | 25.56° C | 25% | 1015 hPa | 0 mm | - | - | - |
| 1777846282 | 25.56° C | 24% | 1015.3 hPa | 0 mm | - | - | - |
* Rain latest hour (hover to see other rain measurements)
** Current wind speed in m/s (hover to see current wind gust speed)